Time;durP1;ratioP1;P1;durP2;ratioP2;P2;SDS_P1;SDS_P2;PMS_P1;PMS_P2;Temp;Humidity;BMP_temperature;BMP_pressure;BME280_temperature;BME280_humidity;BME280_pressure;Samples;Min_cycle;Max_cycle;Signal;HPM_P1;HPM_P2
2023/03/08 00:00:00;;;;;;;;;;;8.00;61.50;;;;;;5052759;28;19964;-89
2023/03/08 00:02:25;;;;;;;;;;;8.00;61.50;;;;;;5052080;28;19943;-89
2023/03/08 00:04:54;;;;;;;;;;;8.00;61.40;;;;;;5051504;28;20004;-89
2023/03/08 00:07:20;;;;;;;;;;;8.00;61.40;;;;;;5062162;28;19943;-89
2023/03/08 00:09:46;;;;;;;;;;;8.00;61.30;;;;;;5072500;28;20455;-89
2023/03/08 00:12:11;;;;;;;;;;;8.00;61.40;;;;;;5054224;28;20003;-89
2023/03/08 00:14:37;;;;;;;;;;;8.00;61.40;;;;;;5072270;28;19950;-88
2023/03/08 00:17:03;;;;;;;;;;;8.00;61.40;;;;;;5071895;28;19915;-89
2023/03/08 00:19:28;;;;;;;;;;;8.10;61.50;;;;;;5071773;28;20026;-89
2023/03/08 00:21:54;;;;;;;;;;;8.10;61.50;;;;;;5048669;28;19909;-89
2023/03/08 00:24:19;;;;;;;;;;;8.00;61.40;;;;;;5065173;28;19931;-89
2023/03/08 00:26:45;;;;;;;;;;;8.10;61.40;;;;;;5071585;28;19913;-89
2023/03/08 00:29:10;;;;;;;;;;;8.00;61.30;;;;;;5072170;28;19963;-90
2023/03/08 00:31:36;;;;;;;;;;;8.00;61.40;;;;;;5053668;28;19913;-88
2023/03/08 00:34:02;;;;;;;;;;;8.00;61.40;;;;;;5053589;28;19975;-89
2023/03/08 00:36:27;;;;;;;;;;;8.00;61.40;;;;;;5072345;28;19920;-89
2023/03/08 00:38:53;;;;;;;;;;;8.00;61.40;;;;;;5071696;28;19920;-89
2023/03/08 00:41:18;;;;;;;;;;;8.00;61.40;;;;;;5071576;28;19913;-90
2023/03/08 00:43:44;;;;;;;;;;;8.00;61.40;;;;;;5049994;28;19920;-90
2023/03/08 00:46:10;;;;;;;;;;;8.00;61.40;;;;;;5050146;28;19931;-90
2023/03/08 00:48:35;;;;;;;;;;;8.00;61.30;;;;;;5051593;28;19928;-90
2023/03/08 00:51:01;;;;;;;;;;;8.00;61.40;;;;;;5033234;28;19940;-89
2023/03/08 00:53:26;;;;;;;;;;;8.00;61.40;;;;;;5049927;28;20046;-89
2023/03/08 00:55:53;;;;;;;;;;;8.00;61.40;;;;;;5051469;28;19972;-89
2023/03/08 00:58:19;;;;;;;;;;;8.00;61.40;;;;;;5051177;28;19913;-89
2023/03/08 01:00:45;;;;;;;;;;;8.00;61.50;;;;;;5050087;28;19915;-90
2023/03/08 01:03:11;;;;;;;;;;;8.00;61.50;;;;;;5051152;28;19908;-90
2023/03/08 01:05:40;;;;;;;;;;;8.00;61.50;;;;;;5050079;28;20248;-90
2023/03/08 01:08:05;;;;;;;;;;;8.00;61.40;;;;;;5051205;28;20399;-90
2023/03/08 01:10:31;;;;;;;;;;;8.00;61.50;;;;;;5049581;28;19924;-88
2023/03/08 01:12:56;;;;;;;;;;;8.00;61.50;;;;;;5049434;28;19913;-90
2023/03/08 01:15:22;;;;;;;;;;;8.00;61.50;;;;;;5049814;28;19925;-90
2023/03/08 01:17:48;;;;;;;;;;;8.00;61.60;;;;;;5051154;28;19909;-90
2023/03/08 01:20:14;;;;;;;;;;;8.10;61.60;;;;;;5057239;28;20413;-90
2023/03/08 01:22:39;;;;;;;;;;;8.10;61.40;;;;;;5070618;28;19916;-90
2023/03/08 01:25:07;;;;;;;;;;;8.10;61.40;;;;;;5052524;28;20343;-89
2023/03/08 01:27:32;;;;;;;;;;;8.10;61.40;;;;;;5070363;28;19912;-88
2023/03/08 01:29:58;;;;;;;;;;;8.10;61.40;;;;;;5052220;28;19921;-90
2023/03/08 01:32:23;;;;;;;;;;;8.10;61.30;;;;;;5070469;28;19947;-90
2023/03/08 01:34:49;;;;;;;;;;;8.10;61.30;;;;;;5070621;28;20001;-90
2023/03/08 01:37:14;;;;;;;;;;;8.10;61.20;;;;;;5070427;28;19916;-89
2023/03/08 01:39:40;;;;;;;;;;;8.10;61.20;;;;;;5069835;28;20290;-89
2023/03/08 01:42:06;;;;;;;;;;;8.10;61.20;;;;;;5070511;28;19931;-89
2023/03/08 01:44:48;;;;;;;;;;;8.10;61.10;;;;;;5051476;28;20260;-87
2023/03/08 01:47:18;;;;;;;;;;;8.00;61.10;;;;;;5051997;28;19926;-88
2023/03/08 01:49:43;;;;;;;;;;;8.00;61.20;;;;;;5052263;28;19938;-88
2023/03/08 01:52:11;;;;;;;;;;;8.00;61.20;;;;;;5069866;28;19920;-89
2023/03/08 01:54:36;;;;;;;;;;;7.90;61.20;;;;;;5051625;28;19928;-89
2023/03/08 01:57:28;;;;;;;;;;;7.90;61.20;;;;;;5052384;28;20558;-89
2023/03/08 01:59:55;;;;;;;;;;;7.80;61.10;;;;;;5066215;28;19917;-89
2023/03/08 02:02:22;;;;;;;;;;;7.80;61.10;;;;;;5070294;28;19912;-88
2023/03/08 02:04:48;;;;;;;;;;;7.70;61.20;;;;;;5070038;28;19921;-89
2023/03/08 02:07:13;;;;;;;;;;;7.70;61.30;;;;;;5051876;28;19958;-90
2023/03/08 02:09:39;;;;;;;;;;;7.70;61.20;;;;;;5051575;28;19924;-89
2023/03/08 02:12:07;;;;;;;;;;;7.60;61.20;;;;;;5069896;28;19912;-89
2023/03/08 02:14:33;;;;;;;;;;;7.50;61.30;;;;;;5069453;28;20403;-89
2023/03/08 02:16:58;;;;;;;;;;;7.50;61.40;;;;;;5069204;28;19970;-90
2023/03/08 02:19:27;;;;;;;;;;;7.50;61.30;;;;;;5051835;28;19924;-88
2023/03/08 02:21:53;;;;;;;;;;;7.40;61.40;;;;;;5064254;28;19917;-89
2023/03/08 02:24:20;;;;;;;;;;;7.40;61.30;;;;;;5046106;28;20298;-89
2023/03/08 02:26:45;;;;;;;;;;;7.40;61.40;;;;;;5051447;28;19912;-88
2023/03/08 02:29:11;;;;;;;;;;;7.40;61.40;;;;;;5069480;28;20045;-88
2023/03/08 02:31:37;;;;;;;;;;;7.40;61.40;;;;;;5051479;28;20011;-89
2023/03/08 02:34:02;;;;;;;;;;;7.30;61.40;;;;;;5069087;28;19931;-89
2023/03/08 02:36:28;;;;;;;;;;;7.40;61.40;;;;;;5069894;28;19912;-89
2023/03/08 02:38:54;;;;;;;;;;;7.40;61.50;;;;;;5069880;28;19917;-89
2023/03/08 02:41:20;;;;;;;;;;;7.40;61.50;;;;;;5050651;28;19920;-90
2023/03/08 02:43:45;;;;;;;;;;;7.40;61.60;;;;;;5051350;28;19921;-90
2023/03/08 02:46:11;;;;;;;;;;;7.50;61.70;;;;;;5061259;28;19960;-89
2023/03/08 02:48:37;;;;;;;;;;;7.50;61.50;;;;;;5049491;28;19921;-88
2023/03/08 02:51:02;;;;;;;;;;;7.50;61.60;;;;;;5049293;28;19915;-89
2023/03/08 02:53:28;;;;;;;;;;;7.50;61.50;;;;;;5049532;28;20020;-90
2023/03/08 02:55:54;;;;;;;;;;;7.50;61.50;;;;;;5048284;28;19955;-89
2023/03/08 02:58:19;;;;;;;;;;;7.50;61.60;;;;;;5056795;28;20894;-90
2023/03/08 03:00:45;;;;;;;;;;;7.50;61.70;;;;;;5069875;28;19909;-88
2023/03/08 03:03:11;;;;;;;;;;;7.60;61.70;;;;;;5051419;28;19966;-88
2023/03/08 03:05:40;;;;;;;;;;;7.60;61.50;;;;;;5051531;28;19908;-89
2023/03/08 03:08:06;;;;;;;;;;;7.60;61.60;;;;;;5051551;28;19909;-89
2023/03/08 03:10:33;;;;;;;;;;;7.60;61.60;;;;;;5069375;28;19913;-88
2023/03/08 03:12:59;;;;;;;;;;;7.60;61.50;;;;;;5051538;28;20007;-89
2023/03/08 03:15:24;;;;;;;;;;;7.60;61.30;;;;;;5069575;28;20012;-89
2023/03/08 03:17:50;;;;;;;;;;;7.60;61.40;;;;;;5069283;28;19908;-88
2023/03/08 03:20:16;;;;;;;;;;;7.50;61.40;;;;;;5069053;28;19917;-89
2023/03/08 03:22:41;;;;;;;;;;;7.50;61.30;;;;;;5069408;28;19912;-90
2023/03/08 03:25:07;;;;;;;;;;;7.60;61.40;;;;;;5051518;28;19927;-90
2023/03/08 03:27:33;;;;;;;;;;;7.60;61.50;;;;;;5070367;28;20387;-89
2023/03/08 03:29:58;;;;;;;;;;;7.60;61.50;;;;;;5073471;28;19921;-90
2023/03/08 03:32:24;;;;;;;;;;;7.60;61.50;;;;;;5073098;28;20327;-90
2023/03/08 03:34:51;;;;;;;;;;;7.60;61.50;;;;;;5073489;28;19924;-90
2023/03/08 03:37:17;;;;;;;;;;;7.70;61.50;;;;;;5054808;28;19912;-89
2023/03/08 03:39:42;;;;;;;;;;;7.60;61.50;;;;;;5055046;28;19922;-90
2023/03/08 03:42:08;;;;;;;;;;;7.60;61.60;;;;;;5054737;28;19908;-89
2023/03/08 03:44:35;;;;;;;;;;;7.70;61.60;;;;;;5055134;28;19923;-90
2023/03/08 03:47:01;;;;;;;;;;;7.70;61.40;;;;;;5072914;28;19955;-88
2023/03/08 03:49:26;;;;;;;;;;;7.70;61.30;;;;;;5054923;28;19978;-89
2023/03/08 03:51:52;;;;;;;;;;;7.60;61.30;;;;;;5072406;28;19947;-90
2023/03/08 03:54:17;;;;;;;;;;;7.60;61.40;;;;;;5072240;28;20426;-89
2023/03/08 03:56:43;;;;;;;;;;;7.60;61.30;;;;;;5072308;28;19962;-89
2023/03/08 03:59:08;;;;;;;;;;;7.60;61.20;;;;;;5054689;28;19967;-89
2023/03/08 04:01:34;;;;;;;;;;;7.50;61.20;;;;;;5054694;28;19948;-90
2023/03/08 04:03:59;;;;;;;;;;;7.50;61.30;;;;;;5055011;28;19942;-89
2023/03/08 04:06:29;;;;;;;;;;;7.50;61.30;;;;;;5054559;28;19916;-89
2023/03/08 04:08:56;;;;;;;;;;;7.50;61.20;;;;;;5054220;28;19943;-90
2023/03/08 04:11:23;;;;;;;;;;;7.50;61.20;;;;;;5072223;28;20425;-90
2023/03/08 04:13:48;;;;;;;;;;;7.40;61.10;;;;;;5054322;28;19936;-89
2023/03/08 04:16:15;;;;;;;;;;;7.40;61.00;;;;;;5072406;28;19965;-89
2023/03/08 04:18:41;;;;;;;;;;;7.30;61.10;;;;;;5054220;28;20007;-89
2023/03/08 04:21:07;;;;;;;;;;;7.30;61.20;;;;;;5071631;28;20003;-89
2023/03/08 04:23:33;;;;;;;;;;;7.30;61.30;;;;;;5045341;28;20540;-88
2023/03/08 04:25:59;;;;;;;;;;;7.20;61.40;;;;;;5072582;28;20144;-90
2023/03/08 04:28:24;;;;;;;;;;;7.20;61.60;;;;;;5072412;28;19920;-90
2023/03/08 04:30:51;;;;;;;;;;;7.30;61.60;;;;;;5072216;28;20377;-91
2023/03/08 04:33:16;;;;;;;;;;;7.30;61.50;;;;;;5071791;28;19909;-90
2023/03/08 04:35:42;;;;;;;;;;;7.30;61.30;;;;;;5072227;28;19913;-90
2023/03/08 04:38:07;;;;;;;;;;;7.30;61.40;;;;;;5036935;28;19916;-91
2023/03/08 04:41:00;;;;;;;;;;;7.30;61.30;;;;;;5053714;28;20014;-90
2023/03/08 04:43:18;;;;;;;;;;;7.20;61.20;;;;;;5071245;28;20253;-90
2023/03/08 04:45:44;;;;;;;;;;;7.30;61.20;;;;;;5072417;28;20398;-90
2023/03/08 04:48:10;;;;;;;;;;;7.20;61.20;;;;;;5072627;28;19909;-91
2023/03/08 04:50:35;;;;;;;;;;;7.20;61.20;;;;;;5053512;28;19912;-91
2023/03/08 04:53:01;;;;;;;;;;;7.20;61.30;;;;;;5072154;28;20437;-91
2023/03/08 04:55:26;;;;;;;;;;;7.10;61.30;;;;;;5053474;28;20365;-91
2023/03/08 04:57:51;;;;;;;;;;;7.10;61.20;;;;;;5071461;28;19916;-89
2023/03/08 05:00:17;;;;;;;;;;;7.10;61.20;;;;;;5054082;28;20369;-90
2023/03/08 05:02:43;;;;;;;;;;;7.10;61.10;;;;;;5071591;28;20275;-89
2023/03/08 05:05:08;;;;;;;;;;;7.00;61.20;;;;;;5071282;28;19962;-90
2023/03/08 05:07:34;;;;;;;;;;;7.10;61.30;;;;;;5053404;28;19970;-90
2023/03/08 05:09:59;;;;;;;;;;;7.10;61.40;;;;;;5053448;28;19971;-91
2023/03/08 05:12:25;;;;;;;;;;;7.10;61.30;;;;;;5053472;28;19919;-90
2023/03/08 05:14:50;;;;;;;;;;;7.10;61.40;;;;;;5053171;28;19981;-89
2023/03/08 05:17:16;;;;;;;;;;;7.10;61.50;;;;;;5053248;28;19913;-90
2023/03/08 05:19:42;;;;;;;;;;;7.20;61.40;;;;;;5071179;28;19912;-89
2023/03/08 05:22:08;;;;;;;;;;;7.20;61.40;;;;;;5065658;28;20371;-89
2023/03/08 05:24:33;;;;;;;;;;;7.20;61.50;;;;;;5050362;28;20459;-89
2023/03/08 05:26:59;;;;;;;;;;;7.30;61.50;;;;;;5050902;28;20315;-89
2023/03/08 05:29:24;;;;;;;;;;;7.30;61.50;;;;;;5050565;28;19917;-90
2023/03/08 05:31:50;;;;;;;;;;;7.30;61.40;;;;;;5032848;28;19913;-89
2023/03/08 05:34:19;;;;;;;;;;;7.30;61.30;;;;;;5032292;28;19921;-89
2023/03/08 05:36:44;;;;;;;;;;;7.30;61.30;;;;;;5050656;28;19921;-90
2023/03/08 05:39:10;;;;;;;;;;;7.30;61.20;;;;;;5049863;28;19920;-91
2023/03/08 05:41:35;;;;;;;;;;;7.30;61.20;;;;;;5050722;28;19917;-89
2023/03/08 05:44:01;;;;;;;;;;;7.30;61.30;;;;;;5050301;28;19917;-90
2023/03/08 05:46:26;;;;;;;;;;;7.30;61.20;;;;;;5032154;28;19921;-90
2023/03/08 05:48:54;;;;;;;;;;;7.40;61.30;;;;;;5066429;28;22315;-90
2023/03/08 05:51:19;;;;;;;;;;;7.40;61.30;;;;;;5051160;28;19918;-89
2023/03/08 05:53:45;;;;;;;;;;;7.30;61.00;;;;;;5069438;28;19934;-89
2023/03/08 05:56:18;;;;;;;;;;;7.30;60.90;;;;;;5070168;28;20336;-88
2023/03/08 05:58:44;;;;;;;;;;;7.20;60.90;;;;;;5069539;28;19916;-89
2023/03/08 06:01:10;;;;;;;;;;;7.20;60.90;;;;;;5052681;28;19917;-88
2023/03/08 06:03:36;;;;;;;;;;;7.10;61.00;;;;;;5060723;28;19920;-89
2023/03/08 06:06:02;;;;;;;;;;;7.10;61.10;;;;;;5050568;28;19919;-89
2023/03/08 06:08:27;;;;;;;;;;;7.10;61.20;;;;;;5042661;28;19960;-90
2023/03/08 06:10:53;;;;;;;;;;;7.10;61.30;;;;;;5069774;28;19962;-91
2023/03/08 06:13:18;;;;;;;;;;;7.10;61.30;;;;;;5050915;28;19924;-91
2023/03/08 06:15:44;;;;;;;;;;;7.10;61.40;;;;;;5049948;28;19913;-91
2023/03/08 06:18:09;;;;;;;;;;;7.10;61.60;;;;;;5048722;28;19967;-92
2023/03/08 06:20:35;;;;;;;;;;;7.10;61.60;;;;;;5048419;28;19928;-88
2023/03/08 06:23:01;;;;;;;;;;;7.20;61.60;;;;;;5050335;28;19913;-89
2023/03/08 06:25:26;;;;;;;;;;;7.20;61.70;;;;;;5050604;28;20403;-91
2023/03/08 06:27:52;;;;;;;;;;;7.20;61.80;;;;;;5051174;28;19916;-89
2023/03/08 06:30:17;;;;;;;;;;;7.30;61.70;;;;;;5069023;28;19912;-89
2023/03/08 06:32:44;;;;;;;;;;;7.30;61.60;;;;;;5069068;28;20002;-91
2023/03/08 06:35:11;;;;;;;;;;;7.40;61.50;;;;;;5070007;28;19920;-92
2023/03/08 06:37:37;;;;;;;;;;;7.40;61.50;;;;;;5052177;28;19913;-88
2023/03/08 06:40:04;;;;;;;;;;;7.40;61.30;;;;;;5052307;28;19958;-92
2023/03/08 06:42:30;;;;;;;;;;;7.40;61.40;;;;;;5070969;28;19913;-91
2023/03/08 06:44:56;;;;;;;;;;;7.50;61.50;;;;;;5052011;28;19909;-91
2023/03/08 06:47:21;;;;;;;;;;;7.60;61.40;;;;;;5069504;28;20252;-90
2023/03/08 06:49:49;;;;;;;;;;;7.50;61.30;;;;;;5051706;28;20249;-91
2023/03/08 06:52:15;;;;;;;;;;;7.60;61.30;;;;;;5051978;28;19919;-91
2023/03/08 06:54:40;;;;;;;;;;;7.60;61.30;;;;;;5070143;28;19920;-90
2023/03/08 06:57:08;;;;;;;;;;;7.60;61.20;;;;;;5070475;28;19919;-90
2023/03/08 06:59:34;;;;;;;;;;;7.60;61.20;;;;;;5065658;28;19916;-90
2023/03/08 07:01:59;;;;;;;;;;;7.70;61.30;;;;;;5049711;28;19962;-90
2023/03/08 07:04:25;;;;;;;;;;;7.70;61.30;;;;;;5072236;28;20406;-90
2023/03/08 07:06:51;;;;;;;;;;;7.70;61.30;;;;;;5072447;28;19919;-88
2023/03/08 07:09:16;;;;;;;;;;;7.70;61.30;;;;;;5071933;28;19916;-90
2023/03/08 07:11:42;;;;;;;;;;;7.70;61.40;;;;;;5070237;28;19913;-91
2023/03/08 07:14:07;;;;;;;;;;;7.70;61.60;;;;;;5039941;28;19929;-89
2023/03/08 07:16:33;;;;;;;;;;;7.80;61.50;;;;;;5051415;28;20318;-88
2023/03/08 07:19:00;;;;;;;;;;;7.80;61.60;;;;;;5053350;28;20374;-90
2023/03/08 07:21:25;;;;;;;;;;;7.80;61.50;;;;;;5071682;28;20332;-90
2023/03/08 07:23:51;;;;;;;;;;;7.90;61.60;;;;;;5037079;28;20256;-88
2023/03/08 07:26:17;;;;;;;;;;;8.00;61.50;;;;;;5066857;28;19951;-90
2023/03/08 07:28:43;;;;;;;;;;;8.00;61.60;;;;;;5037099;28;20359;-90
2023/03/08 07:31:09;;;;;;;;;;;8.00;61.40;;;;;;5068680;28;19974;-90
2023/03/08 07:33:34;;;;;;;;;;;8.00;61.50;;;;;;5071265;28;20013;-90
2023/03/08 07:36:03;;;;;;;;;;;8.10;61.70;;;;;;5070195;28;19912;-89
2023/03/08 07:38:28;;;;;;;;;;;8.20;61.90;;;;;;5070402;28;19943;-89
2023/03/08 07:40:55;;;;;;;;;;;8.20;61.80;;;;;;5036791;28;19913;-90
2023/03/08 07:43:21;;;;;;;;;;;8.30;61.80;;;;;;5070651;28;20003;-88
2023/03/08 07:45:46;;;;;;;;;;;8.40;62.20;;;;;;5065183;28;20007;-88
2023/03/08 07:48:12;;;;;;;;;;;8.50;62.00;;;;;;5047975;28;19916;-90
2023/03/08 07:50:37;;;;;;;;;;;8.50;62.00;;;;;;5070742;28;19912;-89
2023/03/08 07:53:03;;;;;;;;;;;8.60;61.90;;;;;;5069963;28;19923;-91
2023/03/08 07:55:29;;;;;;;;;;;8.60;61.80;;;;;;5062261;28;20267;-88
2023/03/08 07:57:55;;;;;;;;;;;8.70;61.90;;;;;;5043756;28;20020;-91
2023/03/08 08:00:21;;;;;;;;;;;8.70;61.80;;;;;;5069933;28;19909;-89
2023/03/08 08:02:46;;;;;;;;;;;8.80;61.70;;;;;;5042404;28;19962;-90
2023/03/08 08:05:13;;;;;;;;;;;8.80;61.40;;;;;;5051629;28;19959;-89
2023/03/08 08:07:38;;;;;;;;;;;8.80;61.40;;;;;;5070191;28;19938;-89
2023/03/08 08:10:04;;;;;;;;;;;8.90;61.50;;;;;;5065953;28;20029;-90
2023/03/08 08:12:30;;;;;;;;;;;8.90;61.50;;;;;;5068114;28;19917;-89
2023/03/08 08:14:56;;;;;;;;;;;8.90;61.70;;;;;;5063438;28;19916;-89
2023/03/08 08:17:22;;;;;;;;;;;9.00;61.90;;;;;;5046431;28;20574;-90
2023/03/08 08:19:47;;;;;;;;;;;9.00;61.80;;;;;;5071976;28;19924;-90
2023/03/08 08:22:13;;;;;;;;;;;9.10;61.90;;;;;;5054135;28;20421;-89
2023/03/08 08:24:38;;;;;;;;;;;9.20;61.70;;;;;;5070830;28;19969;-90
2023/03/08 08:27:07;;;;;;;;;;;9.20;61.80;;;;;;5069859;28;19912;-91
2023/03/08 08:29:33;;;;;;;;;;;9.30;61.60;;;;;;5050278;28;19960;-91
2023/03/08 08:31:58;;;;;;;;;;;9.30;61.60;;;;;;5070811;28;20098;-91
2023/03/08 08:34:24;;;;;;;;;;;9.30;61.60;;;;;;5069963;28;19924;-89
2023/03/08 08:36:49;;;;;;;;;;;9.30;61.60;;;;;;5068915;28;19947;-90
2023/03/08 08:39:15;;;;;;;;;;;9.30;61.70;;;;;;5034889;28;19924;-89
2023/03/08 08:41:40;;;;;;;;;;;9.30;61.60;;;;;;5051468;28;19913;-90
2023/03/08 08:44:06;;;;;;;;;;;9.40;61.80;;;;;;5068068;28;19916;-89
2023/03/08 08:46:33;;;;;;;;;;;9.40;61.90;;;;;;5070954;28;19916;-88
2023/03/08 08:48:59;;;;;;;;;;;9.50;62.10;;;;;;5071579;28;20011;-90
2023/03/08 08:51:25;;;;;;;;;;;9.70;62.20;;;;;;5071295;28;20055;-89
2023/03/08 08:53:51;;;;;;;;;;;9.70;61.70;;;;;;5070946;28;19927;-89
2023/03/08 08:56:21;;;;;;;;;;;9.70;61.60;;;;;;5071338;28;19909;-89
2023/03/08 08:58:47;;;;;;;;;;;9.70;61.70;;;;;;5071808;28;19913;-89
2023/03/08 09:01:13;;;;;;;;;;;9.70;61.40;;;;;;5063039;28;20050;-89
2023/03/08 09:03:39;;;;;;;;;;;9.80;61.70;;;;;;5069717;28;19920;-90
2023/03/08 09:06:04;;;;;;;;;;;9.80;61.40;;;;;;5048210;28;19932;-90
2023/03/08 09:08:31;;;;;;;;;;;9.80;60.80;;;;;;5050712;28;19917;-89
2023/03/08 09:11:00;;;;;;;;;;;9.70;61.00;;;;;;5067954;28;19955;-88
2023/03/08 09:13:26;;;;;;;;;;;9.70;61.20;;;;;;5067474;28;20286;-90
2023/03/08 09:15:52;;;;;;;;;;;9.80;61.00;;;;;;5051180;28;19924;-92
2023/03/08 09:18:19;;;;;;;;;;;9.70;60.90;;;;;;5035437;28;20367;-88
2023/03/08 09:20:45;;;;;;;;;;;9.70;61.20;;;;;;5050715;28;19925;-89
2023/03/08 09:23:10;;;;;;;;;;;9.70;61.40;;;;;;5050748;28;19935;-89
2023/03/08 09:25:36;;;;;;;;;;;9.70;61.30;;;;;;5068398;28;20338;-88
2023/03/08 09:28:02;;;;;;;;;;;9.60;61.20;;;;;;5068898;28;19912;-88
2023/03/08 09:30:31;;;;;;;;;;;9.70;61.40;;;;;;5069009;28;19978;-91
2023/03/08 09:32:57;;;;;;;;;;;9.70;61.00;;;;;;5067496;28;19912;-90
2023/03/08 09:35:23;;;;;;;;;;;9.60;61.20;;;;;;5069819;28;20356;-89
2023/03/08 09:37:49;;;;;;;;;;;9.60;61.50;;;;;;5036518;28;19928;-89
2023/03/08 09:40:19;;;;;;;;;;;9.70;61.50;;;;;;5052470;28;19951;-90
2023/03/08 09:42:45;;;;;;;;;;;9.70;61.70;;;;;;5052618;28;19920;-89
2023/03/08 09:45:18;;;;;;;;;;;9.70;61.40;;;;;;5052691;28;20326;-89
2023/03/08 09:47:50;;;;;;;;;;;9.60;61.30;;;;;;5070918;28;20419;-91
2023/03/08 09:50:38;;;;;;;;;;;9.70;61.20;;;;;;5068989;28;19909;-90
2023/03/08 09:53:10;;;;;;;;;;;9.60;61.50;;;;;;5037458;28;19967;-90
2023/03/08 09:55:40;;;;;;;;;;;9.60;61.70;;;;;;5042348;28;20003;-88
2023/03/08 09:58:18;;;;;;;;;;;9.50;62.10;;;;;;5048164;28;20009;-90
2023/03/08 10:00:45;;;;;;;;;;;9.50;61.70;;;;;;5044608;28;20402;-88
2023/03/08 10:03:19;;;;;;;;;;;9.50;61.50;;;;;;5050979;28;20378;-91
2023/03/08 10:05:51;;;;;;;;;;;9.40;61.40;;;;;;5048912;28;20360;-90
2023/03/08 10:08:24;;;;;;;;;;;9.30;61.40;;;;;;5047816;28;19917;-90
2023/03/08 10:11:00;;;;;;;;;;;9.30;61.70;;;;;;5050422;28;19947;-90
2023/03/08 10:13:26;;;;;;;;;;;9.40;62.40;;;;;;5048262;28;20379;-90
2023/03/08 10:15:53;;;;;;;;;;;9.40;62.50;;;;;;5046770;28;20078;-89
2023/03/08 10:18:26;;;;;;;;;;;9.50;63.00;;;;;;5048412;28;19916;-89
2023/03/08 10:20:52;;;;;;;;;;;9.50;62.40;;;;;;5038571;28;19913;-88
2023/03/08 10:23:19;;;;;;;;;;;9.50;61.90;;;;;;5045029;28;19932;-88
2023/03/08 10:25:45;;;;;;;;;;;9.50;62.10;;;;;;5047776;28;19913;-90
2023/03/08 10:28:13;;;;;;;;;;;9.50;62.10;;;;;;5049165;28;19913;-90
2023/03/08 10:30:46;;;;;;;;;;;9.50;61.70;;;;;;5048980;28;19917;-90
2023/03/08 10:33:13;;;;;;;;;;;9.50;61.90;;;;;;5044425;28;19931;-89
2023/03/08 10:35:57;;;;;;;;;;;9.50;61.60;;;;;;5048906;28;19971;-89
2023/03/08 10:38:24;;;;;;;;;;;9.50;61.90;;;;;;5046561;28;20291;-91
2023/03/08 10:40:58;;;;;;;;;;;9.60;62.50;;;;;;5047292;28;19912;-91
2023/03/08 10:43:26;;;;;;;;;;;9.60;62.40;;;;;;5049114;28;19921;-89
2023/03/08 10:46:02;;;;;;;;;;;9.50;61.90;;;;;;5050626;28;20004;-90
2023/03/08 10:48:28;;;;;;;;;;;9.50;62.30;;;;;;5050586;28;19947;-91
2023/03/08 10:51:01;;;;;;;;;;;9.50;62.20;;;;;;5050874;28;19921;-90
2023/03/08 10:53:28;;;;;;;;;;;9.50;62.20;;;;;;5037233;28;20003;-88
2023/03/08 10:55:54;;;;;;;;;;;9.70;62.30;;;;;;5049197;28;20007;-91
2023/03/08 10:58:36;;;;;;;;;;;9.70;62.50;;;;;;5066242;28;19927;-89
2023/03/08 11:01:06;;;;;;;;;;;9.80;62.60;;;;;;5049027;28;19916;-88
2023/03/08 11:03:32;;;;;;;;;;;10.00;62.60;;;;;;5033575;28;19916;-91
2023/03/08 11:06:04;;;;;;;;;;;10.00;62.30;;;;;;5068101;28;19916;-91
2023/03/08 11:08:34;;;;;;;;;;;10.10;62.40;;;;;;5068139;28;19979;-89
2023/03/08 11:11:01;;;;;;;;;;;10.10;62.00;;;;;;5068157;28;19920;-91
2023/03/08 11:13:30;;;;;;;;;;;10.10;61.80;;;;;;5034652;28;20330;-89
2023/03/08 11:16:15;;;;;;;;;;;10.00;61.60;;;;;;5068222;28;19916;-90
2023/03/08 11:18:41;;;;;;;;;;;10.00;61.90;;;;;;5066101;28;20375;-90
2023/03/08 11:21:12;;;;;;;;;;;10.00;61.80;;;;;;5065790;28;20492;-89
2023/03/08 11:24:04;;;;;;;;;;;10.10;62.00;;;;;;5060520;28;20399;-90
2023/03/08 11:26:33;;;;;;;;;;;10.20;62.20;;;;;;5062833;28;19924;-90
2023/03/08 11:29:13;;;;;;;;;;;10.10;61.50;;;;;;5066512;28;19917;-89
2023/03/08 11:31:44;;;;;;;;;;;10.00;61.50;;;;;;5049306;28;19917;-89
2023/03/08 11:34:19;;;;;;;;;;;10.10;62.20;;;;;;5069261;28;19921;-90
2023/03/08 11:36:50;;;;;;;;;;;10.20;62.50;;;;;;5058993;28;19920;-93
2023/03/08 11:39:31;;;;;;;;;;;10.30;62.00;;;;;;5044137;28;19959;-88
2023/03/08 11:42:00;;;;;;;;;;;10.20;62.00;;;;;;5033799;28;19924;-87
2023/03/08 11:44:47;;;;;;;;;;;10.20;61.80;;;;;;5047569;28;19912;-87
2023/03/08 11:47:33;;;;;;;;;;;10.30;62.10;;;;;;5040828;28;20344;-88
2023/03/08 11:50:07;;;;;;;;;;;10.50;62.40;;;;;;5036450;28;19966;-91
2023/03/08 11:52:39;;;;;;;;;;;10.60;62.20;;;;;;5039512;28;19924;-91
2023/03/08 11:55:24;;;;;;;;;;;10.70;62.00;;;;;;5050342;28;19924;-92
2023/03/08 11:57:55;;;;;;;;;;;10.70;61.90;;;;;;5070366;28;19924;-91
2023/03/08 12:00:50;;;;;;;;;;;10.70;62.20;;;;;;5044619;28;19917;-92
2023/03/08 12:03:16;;;;;;;;;;;10.70;61.70;;;;;;5035494;28;20331;-90
2023/03/08 12:05:47;;;;;;;;;;;10.70;61.20;;;;;;5052461;28;19912;-91
2023/03/08 12:08:36;;;;;;;;;;;10.50;60.80;;;;;;5046219;28;19912;-90
2023/03/08 12:13:38;;;;;;;;;;;10.30;60.80;;;;;;5066284;28;20385;-88
2023/03/08 12:16:18;;;;;;;;;;;10.00;60.30;;;;;;5038628;28;19917;-88
2023/03/08 12:18:49;;;;;;;;;;;9.90;60.20;;;;;;5065979;28;20001;-88
2023/03/08 12:21:36;;;;;;;;;;;9.80;60.40;;;;;;5052054;28;19924;-87
2023/03/08 12:24:04;;;;;;;;;;;9.70;60.50;;;;;;5067132;28;19951;-90
2023/03/08 12:26:39;;;;;;;;;;;9.70;61.30;;;;;;5062198;28;20329;-88
2023/03/08 12:29:10;;;;;;;;;;;9.70;61.00;;;;;;5047460;28;19924;-89
2023/03/08 12:31:39;;;;;;;;;;;9.70;61.20;;;;;;5043030;28;20012;-90
2023/03/08 12:34:13;;;;;;;;;;;9.80;61.80;;;;;;5033772;28;20347;-89
2023/03/08 12:36:40;;;;;;;;;;;9.80;61.40;;;;;;5064612;28;20337;-91
2023/03/08 12:39:11;;;;;;;;;;;9.80;61.10;;;;;;5052093;28;19912;-91
2023/03/08 12:41:55;;;;;;;;;;;9.70;61.20;;;;;;5056453;28;20371;-88
2023/03/08 12:47:20;;;;;;;;;;;9.70;61.00;;;;;;5066750;28;19916;-90
2023/03/08 12:50:10;;;;;;;;;;;9.60;60.60;;;;;;5035132;28;20000;-88
2023/03/08 12:52:48;;;;;;;;;;;;;;;;;;;;;
2023/03/08 12:55:36;;;;;;;;;;;9.50;61.40;;;;;;5069423;28;19943;-88
2023/03/08 12:58:05;;;;;;;;;;;9.50;61.10;;;;;;5053740;28;19916;-92
2023/03/08 13:00:47;;;;;;;;;;;9.40;60.80;;;;;;5050591;28;19923;-93
2023/03/08 13:03:12;;;;;;;;;;;9.40;60.70;;;;;;5071664;28;19916;-92
2023/03/08 13:05:39;;;;;;;;;;;9.40;60.50;;;;;;5043170;28;19992;-89
2023/03/08 13:08:11;;;;;;;;;;;9.30;60.30;;;;;;5069026;28;19974;-88
2023/03/08 13:10:38;;;;;;;;;;;9.30;60.50;;;;;;5036862;28;19917;-91
2023/03/08 13:13:09;;;;;;;;;;;9.30;60.70;;;;;;5068968;28;19924;-87
2023/03/08 13:15:36;;;;;;;;;;;9.30;60.70;;;;;;5038745;28;20007;-91
2023/03/08 13:18:08;;;;;;;;;;;9.10;60.30;;;;;;5048476;28;19916;-88
2023/03/08 13:20:39;;;;;;;;;;;9.10;60.70;;;;;;5036242;28;19920;-89
2023/03/08 13:23:14;;;;;;;;;;;9.10;60.60;;;;;;5042691;28;20399;-91
2023/03/08 13:25:39;;;;;;;;;;;9.10;60.90;;;;;;5068546;28;20732;-89
2023/03/08 13:28:10;;;;;;;;;;;9.10;61.20;;;;;;5068863;28;19924;-90
2023/03/08 13:30:48;;;;;;;;;;;9.10;60.90;;;;;;5036425;28;19975;-89
2023/03/08 13:33:26;;;;;;;;;;;9.20;61.30;;;;;;5053972;28;19920;-90
2023/03/08 13:35:56;;;;;;;;;;;9.20;61.00;;;;;;5036880;28;20002;-91
2023/03/08 13:38:23;;;;;;;;;;;9.20;61.50;;;;;;5068740;28;19927;-91
2023/03/08 13:40:53;;;;;;;;;;;9.30;61.40;;;;;;5044416;28;19920;-88
2023/03/08 13:43:20;;;;;;;;;;;9.30;61.00;;;;;;5051437;28;20376;-90
2023/03/08 13:45:50;;;;;;;;;;;9.30;60.80;;;;;;5066182;28;19920;-90
2023/03/08 13:48:20;;;;;;;;;;;9.30;60.80;;;;;;5069215;28;19920;-87
2023/03/08 13:50:49;;;;;;;;;;;9.30;61.00;;;;;;5060722;28;19912;-90
2023/03/08 13:53:44;;;;;;;;;;;9.20;60.90;;;;;;5068452;28;20377;-89
2023/03/08 13:56:18;;;;;;;;;;;9.20;60.70;;;;;;5036905;28;19959;-91
2023/03/08 13:58:45;;;;;;;;;;;9.30;61.30;;;;;;5068641;28;20374;-91
2023/03/08 14:01:12;;;;;;;;;;;9.30;61.40;;;;;;5038916;28;19913;-89
2023/03/08 14:03:39;;;;;;;;;;;9.30;60.90;;;;;;5050461;28;19913;-93
2023/03/08 14:06:23;;;;;;;;;;;9.30;60.60;;;;;;5041114;28;19912;-94
2023/03/08 14:08:49;;;;;;;;;;;9.30;60.20;;;;;;5049635;28;20238;-90
2023/03/08 14:11:22;;;;;;;;;;;9.20;60.60;;;;;;5065585;28;19916;-89
2023/03/08 14:13:52;;;;;;;;;;;9.20;60.50;;;;;;5044764;28;19921;-90
2023/03/08 14:16:53;;;;;;;;;;;9.20;60.60;;;;;;5037103;28;19913;-88
2023/03/08 14:19:25;;;;;;;;;;;9.20;60.80;;;;;;5018407;28;19921;-92
2023/03/08 14:21:54;;;;;;;;;;;9.20;61.00;;;;;;5063824;28;20289;-88
2023/03/08 14:24:24;;;;;;;;;;;9.30;61.20;;;;;;5050347;28;20387;-91
2023/03/08 14:26:59;;;;;;;;;;;9.30;61.30;;;;;;5034376;28;19920;-91
2023/03/08 14:29:32;;;;;;;;;;;9.40;61.30;;;;;;5049705;28;19917;-87
2023/03/08 14:31:58;;;;;;;;;;;9.40;61.50;;;;;;5049920;28;19915;-88
2023/03/08 14:34:41;;;;;;;;;;;9.50;61.60;;;;;;5052059;28;20393;-92
2023/03/08 14:37:19;;;;;;;;;;;9.50;61.50;;;;;;5045654;28;20559;-90
2023/03/08 14:42:43;;;;;;;;;;;9.50;60.80;;;;;;5070444;28;19939;-91
2023/03/08 14:45:44;;;;;;;;;;;9.40;60.60;;;;;;5048802;28;19959;-90